createdAt,value
2018-05-06T00:00:57.135Z,10.70
2018-05-06T00:03:24.586Z,10.80
2018-05-06T00:05:52.038Z,10.80
2018-05-06T00:08:20.248Z,10.70
2018-05-06T00:10:47.713Z,10.70
2018-05-06T00:13:15.166Z,10.70
2018-05-06T00:15:43.387Z,10.60
2018-05-06T00:18:10.842Z,10.80
2018-05-06T00:20:38.308Z,10.50
2018-05-06T00:23:05.762Z,10.40
2018-05-06T00:25:33.989Z,10.30
2018-05-06T00:28:01.447Z,10.30
2018-05-06T00:30:28.911Z,10.30
2018-05-06T00:32:56.356Z,10.50
2018-05-06T00:35:24.585Z,10.00
2018-05-06T00:37:52.039Z,9.90
2018-05-06T00:40:19.501Z,10.00
2018-05-06T00:42:46.936Z,9.90
2018-05-06T00:45:14.389Z,9.80
2018-05-06T00:47:41.843Z,9.90
2018-05-06T00:50:09.300Z,9.70
2018-05-06T00:52:36.748Z,9.80
2018-05-06T00:55:04.207Z,9.80
2018-05-06T00:57:31.662Z,9.90
2018-05-06T00:59:59.891Z,9.70
2018-05-06T01:02:27.340Z,9.40
2018-05-06T01:04:54.784Z,9.60
2018-05-06T01:07:23.008Z,9.60
2018-05-06T01:09:50.450Z,9.40
2018-05-06T01:12:18.691Z,9.10
2018-05-06T01:14:46.141Z,9.20
2018-05-06T01:17:13.596Z,8.80
2018-05-06T01:19:41.041Z,8.80
2018-05-06T01:22:09.253Z,8.30
2018-05-06T01:24:36.706Z,8.50
2018-05-06T01:27:04.922Z,8.20
2018-05-06T01:29:32.377Z,8.20
2018-05-06T01:31:59.842Z,8.10
2018-05-06T01:34:27.288Z,7.90
2018-05-06T01:36:55.630Z,8.10
2018-05-06T01:39:23.072Z,7.80
2018-05-06T01:41:50.533Z,7.70
2018-05-06T01:44:18.750Z,7.40
2018-05-06T01:46:46.204Z,7.50
2018-05-06T01:49:13.645Z,7.30
2018-05-06T01:51:41.869Z,6.90
2018-05-06T01:54:09.308Z,7.10
2018-05-06T01:56:37.537Z,6.70
2018-05-06T01:59:05.018Z,6.90
2018-05-06T02:01:33.625Z,6.60
2018-05-06T02:04:01.065Z,6.50
2018-05-06T02:06:29.238Z,6.70
2018-05-06T02:08:56.682Z,6.10
2018-05-06T02:11:24.905Z,6.00
2018-05-06T02:13:52.348Z,6.00
2018-05-06T02:16:19.807Z,5.90
2018-05-06T02:18:48.934Z,5.90
2018-05-06T02:21:16.391Z,5.90
2018-05-06T02:23:44.597Z,5.90
2018-05-06T02:26:12.049Z,6.00
2018-05-06T02:28:40.252Z,5.70
2018-05-06T02:31:07.717Z,5.70
2018-05-06T02:33:35.156Z,5.60
2018-05-06T02:36:02.618Z,5.50
2018-05-06T02:38:30.113Z,5.30
2018-05-06T02:40:58.334Z,5.20
2018-05-06T02:43:25.779Z,5.20
2018-05-06T02:45:53.242Z,5.10
2018-05-06T02:48:21.447Z,4.90
2018-05-06T02:50:48.904Z,5.00
2018-05-06T02:53:16.348Z,4.90
2018-05-06T02:55:44.630Z,4.90
2018-05-06T02:58:12.082Z,4.70
2018-05-06T03:00:40.245Z,4.70
2018-05-06T03:03:07.704Z,4.70
2018-05-06T03:05:35.167Z,4.60
2018-05-06T03:08:02.615Z,4.50
2018-05-06T03:10:31.078Z,4.50
2018-05-06T03:12:58.542Z,4.80
2018-05-06T03:15:25.995Z,4.90
2018-05-06T03:17:53.458Z,4.50
2018-05-06T03:20:20.910Z,4.50
2018-05-06T03:22:48.800Z,4.50
2018-05-06T03:25:16.258Z,4.50
2018-05-06T03:27:43.718Z,4.70
2018-05-06T03:30:11.979Z,4.50
2018-05-06T03:32:40.199Z,4.60
2018-05-06T03:35:07.649Z,4.50
2018-05-06T03:37:36.191Z,4.50
2018-05-06T03:40:03.638Z,4.50
2018-05-06T03:42:32.077Z,4.40
2018-05-06T03:44:59.520Z,4.40
2018-05-06T03:47:26.982Z,4.20
2018-05-06T03:49:54.426Z,4.20
2018-05-06T03:52:21.880Z,4.50
2018-05-06T03:54:50.093Z,3.90
2018-05-06T03:57:29.405Z,3.80
2018-05-06T04:00:09.483Z,3.70
2018-05-06T04:02:40.509Z,3.60
2018-05-06T04:05:07.962Z,3.90
2018-05-06T04:07:35.416Z,3.90
2018-05-06T04:10:03.709Z,3.50
2018-05-06T04:12:31.171Z,3.60
2018-05-06T04:15:00.368Z,3.60
2018-05-06T04:17:27.838Z,3.70
2018-05-06T04:19:55.295Z,3.80
2018-05-06T04:22:22.759Z,4.20
2018-05-06T04:24:50.223Z,4.40
2018-05-06T04:27:17.684Z,4.30
2018-05-06T04:29:45.910Z,4.70
2018-05-06T04:32:13.379Z,4.70
2018-05-06T04:34:40.829Z,4.70
2018-05-06T04:37:08.280Z,4.90
2018-05-06T04:39:36.503Z,5.30
2018-05-06T04:42:03.966Z,5.30
2018-05-06T04:44:31.427Z,5.30
2018-05-06T04:46:58.894Z,5.60
2018-05-06T04:49:26.341Z,6.00
2018-05-06T04:51:54.564Z,6.20
2018-05-06T04:54:22.011Z,6.20
2018-05-06T04:56:49.466Z,6.40
2018-05-06T04:59:18.693Z,7.20
2018-05-06T05:01:46.144Z,7.20
2018-05-06T05:04:14.366Z,7.70
2018-05-06T05:06:42.947Z,8.00
2018-05-06T05:09:10.393Z,8.10
2018-05-06T05:11:38.610Z,8.80
2018-05-06T05:14:06.063Z,8.80
2018-05-06T05:16:34.132Z,9.30
2018-05-06T05:19:02.358Z,10.00
2018-05-06T05:21:29.821Z,9.90
2018-05-06T05:23:58.308Z,10.40
2018-05-06T05:26:25.760Z,10.70
2018-05-06T05:28:53.977Z,11.30
2018-05-06T05:31:21.442Z,11.20
2018-05-06T05:33:50.348Z,11.60
2018-05-06T05:36:17.820Z,11.80
2018-05-06T05:38:45.274Z,12.10
2018-05-06T05:41:12.721Z,12.30
2018-05-06T05:43:40.950Z,12.70
2018-05-06T05:46:08.403Z,12.80
2018-05-06T05:48:35.857Z,12.90
2018-05-06T05:51:04.082Z,13.20
2018-05-06T05:53:31.545Z,13.20
2018-05-06T05:55:58.991Z,13.40
2018-05-06T05:58:27.222Z,13.50
2018-05-06T06:00:54.665Z,13.70
2018-05-06T06:03:22.125Z,13.60
2018-05-06T06:05:49.568Z,13.70
2018-05-06T06:08:17.800Z,13.90
2018-05-06T06:10:45.783Z,13.80
2018-05-06T06:13:13.233Z,14.00
2018-05-06T06:15:40.791Z,14.10
2018-05-06T06:18:09.746Z,14.30
2018-05-06T06:20:37.191Z,14.20
2018-05-06T06:23:04.659Z,14.40
2018-05-06T06:25:32.101Z,14.30
2018-05-06T06:28:00.321Z,14.40
2018-05-06T06:30:27.774Z,14.40
2018-05-06T06:32:55.293Z,14.50
2018-05-06T06:35:22.727Z,14.70
2018-05-06T06:37:50.194Z,14.80
2018-05-06T06:40:17.654Z,15.00
2018-05-06T06:42:45.123Z,15.00
2018-05-06T06:45:13.054Z,15.20
2018-05-06T06:47:40.513Z,15.20
2018-05-06T06:50:07.990Z,15.30
2018-05-06T06:52:35.444Z,15.30
2018-05-06T06:55:02.896Z,15.40
2018-05-06T06:57:30.358Z,15.30
2018-05-06T06:59:57.804Z,15.40
2018-05-06T07:02:26.025Z,15.40
2018-05-06T07:04:53.482Z,15.20
2018-05-06T07:07:20.947Z,15.50
2018-05-06T07:09:49.074Z,15.70
2018-05-06T07:12:16.529Z,15.90
2018-05-06T07:14:43.973Z,16.00
2018-05-06T07:17:11.438Z,16.10
2018-05-06T07:19:38.891Z,16.20
2018-05-06T07:22:07.138Z,16.40
2018-05-06T07:24:36.188Z,16.50
2018-05-06T07:27:04.417Z,16.60
2018-05-06T07:29:32.634Z,16.70
2018-05-06T07:32:00.093Z,17.00
2018-05-06T07:34:27.546Z,16.70
2018-05-06T07:36:55.000Z,16.70
2018-05-06T07:39:22.448Z,16.70
2018-05-06T07:41:49.910Z,16.90
2018-05-06T07:44:18.139Z,16.90
2018-05-06T07:46:45.591Z,17.00
2018-05-06T07:49:13.052Z,17.10
2018-05-06T07:51:40.519Z,17.30
2018-05-06T07:54:07.977Z,17.40
2018-05-06T07:56:36.199Z,17.40
2018-05-06T07:59:03.661Z,17.40
2018-05-06T08:01:31.109Z,17.50
2018-05-06T08:03:58.587Z,17.50
2018-05-06T08:06:26.035Z,17.60
2018-05-06T08:08:54.253Z,17.70
2018-05-06T08:11:21.712Z,17.70
2018-05-06T08:13:49.166Z,17.70
2018-05-06T08:16:17.405Z,18.00
2018-05-06T08:18:44.838Z,18.00
2018-05-06T08:21:12.299Z,17.90
2018-05-06T08:23:40.530Z,18.00
2018-05-06T08:26:08.017Z,18.10
2018-05-06T08:28:35.486Z,18.00
2018-05-06T08:31:03.821Z,18.00
2018-05-06T08:33:31.216Z,18.20
2018-05-06T08:35:58.670Z,18.30
2018-05-06T08:38:26.138Z,18.50
2018-05-06T08:41:03.489Z,18.50
2018-05-06T08:43:30.947Z,18.60
2018-05-06T08:45:58.409Z,18.80
2018-05-06T08:48:25.873Z,18.80
2018-05-06T08:50:53.324Z,19.00
2018-05-06T08:53:20.805Z,19.00
2018-05-06T08:55:48.261Z,19.00
2018-05-06T08:58:15.727Z,19.10
2018-05-06T09:00:43.760Z,19.20
2018-05-06T09:03:11.226Z,19.30
2018-05-06T09:05:38.678Z,19.20
2018-05-06T09:08:06.230Z,19.20
2018-05-06T09:10:35.632Z,19.20
2018-05-06T09:13:03.095Z,19.30
2018-05-06T09:15:31.310Z,19.40
2018-05-06T09:17:58.770Z,19.30
2018-05-06T09:20:26.222Z,19.30
2018-05-06T09:22:54.949Z,19.30
2018-05-06T09:25:22.485Z,19.40
2018-05-06T09:27:50.878Z,19.20
2018-05-06T09:30:19.089Z,19.50
2018-05-06T09:32:46.545Z,19.50
2018-05-06T09:35:14.693Z,19.60
2018-05-06T09:37:42.157Z,19.60
2018-05-06T09:40:09.617Z,19.80
2018-05-06T09:42:37.107Z,19.90
2018-05-06T09:45:04.560Z,20.10
2018-05-06T09:47:32.092Z,20.30
2018-05-06T09:49:59.501Z,20.60
2018-05-06T09:52:26.958Z,20.70
2018-05-06T09:54:54.428Z,20.80
2018-05-06T09:57:21.872Z,20.80
2018-05-06T09:59:49.334Z,20.90
2018-05-06T10:02:17.533Z,21.00
2018-05-06T10:04:44.990Z,21.10
2018-05-06T10:07:12.437Z,21.10
2018-05-06T10:09:41.591Z,20.90
2018-05-06T10:12:09.094Z,20.80
2018-05-06T10:14:36.656Z,20.90
2018-05-06T10:17:04.408Z,20.90
2018-05-06T10:19:33.590Z,20.70
2018-05-06T10:22:01.883Z,20.50
2018-05-06T10:24:29.400Z,20.50
2018-05-06T10:26:58.699Z,20.40
2018-05-06T10:29:26.969Z,20.70
2018-05-06T10:31:54.476Z,20.70
2018-05-06T10:34:22.038Z,20.70
2018-05-06T10:36:50.521Z,20.60
2018-05-06T10:39:18.791Z,20.70
2018-05-06T10:41:46.307Z,20.70
2018-05-06T10:44:15.511Z,20.90
2018-05-06T10:46:43.906Z,21.00
2018-05-06T10:49:11.525Z,21.10
2018-05-06T10:51:38.938Z,21.20
2018-05-06T10:54:06.519Z,21.10
2018-05-06T10:56:34.085Z,20.90
2018-05-06T10:59:01.620Z,20.90
2018-05-06T11:01:29.136Z,20.80
2018-05-06T11:03:56.687Z,20.80
2018-05-06T11:06:25.886Z,21.00
2018-05-06T11:08:53.358Z,21.10
2018-05-06T11:11:20.950Z,21.30
2018-05-06T11:13:49.401Z,21.30
2018-05-06T11:16:20.704Z,21.00
2018-05-06T11:18:48.343Z,21.00
2018-05-06T11:21:16.246Z,21.00
2018-05-06T11:23:43.791Z,21.20
2018-05-06T11:26:12.239Z,20.90
2018-05-06T11:28:39.720Z,20.80
2018-05-06T11:31:07.674Z,21.10
2018-05-06T11:33:35.237Z,21.20
2018-05-06T11:36:03.198Z,21.40
2018-05-06T11:38:32.833Z,21.50
2018-05-06T11:41:01.325Z,21.60
2018-05-06T11:43:28.962Z,21.60
2018-05-06T11:46:00.870Z,21.40
2018-05-06T11:48:28.564Z,21.40
2018-05-06T11:50:57.333Z,21.40
2018-05-06T11:53:25.310Z,21.30
2018-05-06T11:55:53.114Z,21.20
2018-05-06T11:58:21.236Z,21.60
2018-05-06T12:00:49.508Z,21.70
2018-05-06T12:03:17.369Z,21.80
2018-05-06T12:05:45.024Z,21.80
2018-05-06T12:08:12.679Z,21.90
2018-05-06T12:10:41.098Z,21.80
2018-05-06T12:13:08.920Z,21.70
2018-05-06T12:15:36.634Z,21.90
2018-05-06T12:18:05.561Z,22.20
2018-05-06T12:20:33.304Z,22.20
2018-05-06T12:23:01.829Z,21.80
2018-05-06T12:25:29.416Z,21.60
2018-05-06T12:27:57.083Z,21.80
2018-05-06T12:30:24.653Z,21.80
2018-05-06T12:32:52.669Z,21.80
2018-05-06T12:35:20.282Z,21.80
2018-05-06T12:37:48.768Z,21.30
2018-05-06T12:40:16.401Z,21.30
2018-05-06T12:42:44.041Z,21.40
2018-05-06T12:45:11.508Z,21.70
2018-05-06T12:47:38.956Z,21.70
2018-05-06T12:50:06.421Z,22.10
2018-05-06T12:52:34.646Z,22.60
2018-05-06T12:55:02.113Z,22.60
2018-05-06T12:57:29.567Z,22.60
2018-05-06T12:59:57.118Z,22.50
2018-05-06T13:02:24.577Z,22.30
2018-05-06T13:04:52.028Z,22.20
2018-05-06T13:07:19.486Z,22.10
2018-05-06T13:09:46.946Z,22.00
2018-05-06T13:12:14.393Z,21.90
2018-05-06T13:14:41.851Z,21.80
2018-05-06T13:17:10.074Z,21.40
2018-05-06T13:19:37.541Z,21.40
2018-05-06T13:22:05.003Z,21.30
2018-05-06T13:24:32.462Z,21.10
2018-05-06T13:26:59.921Z,21.00
2018-05-06T13:29:28.155Z,20.90
2018-05-06T13:31:55.610Z,20.90
2018-05-06T13:34:23.097Z,20.80
2018-05-06T13:36:50.549Z,20.80
2018-05-06T13:39:18.004Z,20.90
2018-05-06T13:41:46.493Z,20.90
2018-05-06T13:44:13.955Z,21.10
2018-05-06T13:46:41.402Z,21.10
2018-05-06T13:49:08.866Z,21.20
2018-05-06T13:51:36.309Z,21.20
2018-05-06T13:54:03.768Z,21.30
2018-05-06T13:56:31.227Z,21.20
2018-05-06T13:58:58.681Z,21.10
2018-05-06T14:01:26.151Z,21.10
2018-05-06T14:03:53.606Z,21.00
2018-05-06T14:06:21.831Z,20.70
2018-05-06T14:08:50.064Z,20.50
2018-05-06T14:11:17.517Z,20.50
2018-05-06T14:13:44.977Z,20.50
2018-05-06T14:16:12.443Z,20.50
2018-05-06T14:18:39.893Z,20.60
2018-05-06T14:21:07.644Z,20.40
2018-05-06T14:23:35.849Z,20.30
2018-05-06T14:26:03.315Z,20.30
2018-05-06T14:28:30.758Z,20.20
2018-05-06T14:30:58.990Z,20.10
2018-05-06T14:33:26.437Z,20.10
2018-05-06T14:35:53.897Z,20.10
2018-05-06T14:38:21.344Z,20.00
2018-05-06T14:40:49.581Z,19.70
2018-05-06T14:43:17.039Z,19.70
2018-05-06T14:45:44.511Z,19.60
2018-05-06T14:48:18.786Z,19.50
2018-05-06T14:50:46.241Z,19.60
2018-05-06T14:53:13.711Z,19.50
2018-05-06T14:55:41.178Z,19.50
2018-05-06T14:58:08.628Z,19.60
2018-05-06T15:00:36.111Z,19.60
2018-05-06T15:03:03.565Z,19.60
2018-05-06T15:05:31.045Z,19.50
2018-05-06T15:07:58.492Z,19.40
2018-05-06T15:10:25.965Z,19.30
2018-05-06T15:12:54.343Z,19.20
2018-05-06T15:15:22.602Z,19.10
2018-05-06T15:17:50.839Z,19.00
2018-05-06T15:20:18.613Z,19.00
2018-05-06T15:22:46.061Z,19.00
2018-05-06T15:25:14.290Z,19.10
2018-05-06T15:27:41.740Z,19.10
2018-05-06T15:30:09.205Z,19.00
2018-05-06T15:32:36.663Z,19.00
2018-05-06T15:35:04.889Z,19.00
2018-05-06T15:37:32.333Z,18.90
2018-05-06T15:39:59.804Z,18.90
2018-05-06T15:42:27.276Z,18.90
2018-05-06T15:44:54.740Z,18.80
2018-05-06T15:47:22.196Z,18.80
2018-05-06T15:49:50.429Z,18.70
2018-05-06T15:52:17.886Z,18.90
2018-05-06T16:00:33.007Z,19.00
2018-05-06T16:03:12.349Z,19.00
2018-05-06T16:05:41.655Z,18.70
2018-05-06T16:08:09.829Z,18.70
2018-05-06T16:10:37.294Z,18.70
2018-05-06T16:13:04.828Z,18.60
2018-05-06T16:15:32.214Z,18.50
2018-05-06T16:17:59.681Z,18.50
2018-05-06T16:20:27.147Z,18.50
2018-05-06T16:22:54.589Z,18.40
2018-05-06T16:25:22.063Z,18.40
2018-05-06T16:27:49.525Z,18.30
2018-05-06T16:30:16.984Z,18.20
2018-05-06T16:32:45.202Z,18.20
2018-05-06T16:35:12.661Z,18.00
2018-05-06T16:37:40.928Z,18.30
2018-05-06T16:40:09.999Z,18.20
2018-05-06T16:42:38.093Z,18.00
2018-05-06T16:45:05.554Z,18.20
2018-05-06T16:47:33.010Z,18.20
2018-05-06T16:50:00.453Z,18.10
2018-05-06T16:52:27.914Z,18.10
2018-05-06T16:54:55.360Z,18.10
2018-05-06T16:57:23.652Z,18.00
2018-05-06T16:59:51.049Z,18.00
2018-05-06T17:02:18.513Z,18.00
2018-05-06T17:04:45.965Z,17.90
2018-05-06T17:07:14.194Z,17.90
2018-05-06T17:09:41.647Z,17.90
2018-05-06T17:12:09.104Z,17.80
2018-05-06T17:14:36.554Z,17.80
2018-05-06T17:17:05.086Z,17.60
2018-05-06T17:19:32.533Z,17.50
2018-05-06T17:22:00.032Z,17.60
2018-05-06T17:24:27.449Z,17.60
2018-05-06T17:26:56.081Z,17.50
2018-05-06T17:29:23.534Z,17.50
2018-05-06T17:31:51.763Z,17.50
2018-05-06T17:34:19.216Z,17.50
2018-05-06T17:36:46.685Z,17.40
2018-05-06T17:39:14.899Z,17.30
2018-05-06T17:41:43.765Z,17.50
2018-05-06T17:44:11.222Z,17.30
2018-05-06T17:46:39.449Z,17.30
2018-05-06T17:49:06.902Z,17.30
2018-05-06T17:51:35.718Z,17.20
2018-05-06T17:54:03.171Z,17.10
2018-05-06T17:56:30.633Z,17.10
2018-05-06T17:58:58.097Z,16.90
2018-05-06T18:01:25.554Z,16.70
2018-05-06T18:03:53.785Z,16.50
2018-05-06T18:06:21.250Z,16.60
2018-05-06T18:08:48.696Z,16.40
2018-05-06T18:11:16.158Z,16.40
2018-05-06T18:13:43.616Z,16.40
2018-05-06T18:16:11.845Z,16.20
2018-05-06T18:18:39.509Z,16.20
2018-05-06T18:21:06.965Z,16.10
2018-05-06T18:23:34.425Z,16.00
2018-05-06T18:26:01.889Z,16.00
2018-05-06T18:28:30.102Z,15.80
2018-05-06T18:30:57.571Z,16.10
2018-05-06T18:33:25.021Z,15.70
2018-05-06T18:35:53.250Z,15.70
2018-05-06T18:38:20.701Z,15.70
2018-05-06T18:40:48.160Z,15.50
2018-05-06T18:43:15.617Z,15.40
2018-05-06T18:45:43.846Z,15.20
2018-05-06T18:48:11.309Z,15.40
2018-05-06T18:50:38.781Z,15.10
2018-05-06T18:53:06.237Z,14.90
2018-05-06T18:55:34.589Z,14.70
2018-05-06T18:58:02.822Z,14.40
2018-05-06T19:00:30.523Z,14.50
2018-05-06T19:02:57.981Z,14.30
2018-05-06T19:05:26.349Z,14.20
2018-05-06T19:07:53.813Z,14.00
2018-05-06T19:10:21.261Z,13.80
2018-05-06T19:12:50.895Z,13.40
2018-05-06T19:15:18.341Z,13.30
2018-05-06T19:17:46.570Z,13.20
2018-05-06T19:20:14.026Z,13.10
2018-05-06T19:22:41.929Z,13.00
2018-05-06T19:25:09.386Z,12.80
2018-05-06T19:27:37.798Z,12.60
2018-05-06T19:30:05.248Z,12.40
2018-05-06T19:32:33.252Z,12.10
2018-05-06T19:35:00.694Z,12.00
2018-05-06T19:37:28.154Z,12.00
2018-05-06T19:39:55.598Z,11.80
2018-05-06T19:42:24.986Z,11.80
2018-05-06T19:44:52.386Z,11.90
2018-05-06T19:47:20.615Z,11.80
2018-05-06T19:49:48.066Z,12.00
2018-05-06T19:52:16.837Z,11.80
2018-05-06T19:54:44.286Z,11.80
2018-05-06T19:57:11.753Z,11.80
2018-05-06T19:59:39.197Z,11.90
2018-05-06T20:02:06.657Z,11.80
2018-05-06T20:04:35.346Z,11.90
2018-05-06T20:07:02.809Z,11.90
2018-05-06T20:09:30.260Z,12.00
2018-05-06T20:11:58.489Z,12.40
2018-05-06T20:14:25.944Z,12.40
2018-05-06T20:16:53.406Z,12.30
2018-05-06T20:19:20.866Z,12.30
2018-05-06T20:21:49.207Z,12.40
2018-05-06T20:24:16.562Z,12.30
2018-05-06T20:26:44.022Z,12.40
2018-05-06T20:29:12.412Z,12.50
2018-05-06T20:31:39.858Z,12.50
2018-05-06T20:34:07.314Z,12.50
2018-05-06T20:36:35.552Z,12.50
2018-05-06T20:39:02.997Z,12.70
2018-05-06T20:41:30.561Z,12.50
2018-05-06T20:43:58.019Z,12.50
2018-05-06T20:46:26.249Z,12.40
2018-05-06T20:48:53.706Z,12.50
2018-05-06T20:51:21.169Z,12.20
2018-05-06T20:53:48.622Z,12.00
2018-05-06T20:56:16.861Z,11.80
2018-05-06T20:58:44.314Z,12.00
2018-05-06T21:01:13.967Z,11.70
2018-05-06T21:03:41.425Z,11.60
2018-05-06T21:06:10.593Z,11.50
2018-05-06T21:08:38.068Z,11.40
2018-05-06T21:11:05.522Z,11.50
2018-05-06T21:13:33.634Z,11.60
2018-05-06T21:16:01.005Z,11.50
2018-05-06T21:18:28.507Z,11.90
2018-05-06T21:20:55.930Z,11.60
2018-05-06T21:23:23.389Z,11.60
2018-05-06T21:25:51.061Z,11.60
2018-05-06T21:28:18.538Z,11.50
2018-05-06T21:30:46.092Z,11.40
2018-05-06T21:33:14.220Z,11.50
2018-05-06T21:35:42.430Z,11.60
2018-05-06T21:38:09.892Z,11.90
2018-05-06T21:40:37.342Z,11.90
2018-05-06T21:43:04.810Z,12.10
2018-05-06T21:45:32.286Z,12.20
2018-05-06T21:47:59.751Z,12.30
2018-05-06T21:50:31.178Z,12.30
2018-05-06T21:52:59.474Z,12.20
2018-05-06T21:55:26.862Z,12.20
2018-05-06T21:57:54.329Z,12.20
2018-05-06T22:00:21.774Z,12.10
2018-05-06T22:02:49.694Z,12.20
2018-05-06T22:05:17.142Z,12.30
2018-05-06T22:07:45.945Z,12.40
2018-05-06T22:10:13.403Z,12.50
2018-05-06T22:12:40.874Z,12.60
2018-05-06T22:15:08.329Z,12.70
2018-05-06T22:17:36.556Z,12.50
2018-05-06T22:20:04.010Z,12.70
2018-05-06T22:22:31.513Z,12.50
2018-05-06T22:24:58.942Z,12.50
2018-05-06T22:27:26.405Z,12.60
2018-05-06T22:29:53.858Z,12.50
2018-05-06T22:32:23.098Z,12.10
2018-05-06T22:34:50.547Z,12.10
2018-05-06T22:37:18.778Z,11.80
2018-05-06T22:39:46.234Z,11.80
2018-05-06T22:42:13.698Z,11.80
2018-05-06T22:44:41.153Z,11.90
2018-05-06T22:47:09.555Z,11.80
2018-05-06T22:49:37.010Z,11.70
2018-05-06T22:52:04.474Z,11.90
2018-05-06T22:54:32.677Z,11.80
2018-05-06T22:57:00.135Z,11.80
2018-05-06T22:59:27.675Z,11.80
2018-05-06T23:01:56.631Z,11.80
2018-05-06T23:04:24.094Z,11.90
2018-05-06T23:06:52.054Z,11.80
2018-05-06T23:09:20.278Z,11.80
2018-05-06T23:11:47.730Z,11.90
2018-05-06T23:14:15.191Z,11.70
2018-05-06T23:16:42.638Z,11.80
2018-05-06T23:19:10.875Z,11.70
2018-05-06T23:21:38.411Z,11.90
2018-05-06T23:24:06.621Z,11.80
2018-05-06T23:26:34.104Z,11.90
2018-05-06T23:29:01.537Z,11.90
2018-05-06T23:31:29.753Z,12.00
2018-05-06T23:33:57.218Z,12.30
2018-05-06T23:36:24.673Z,12.00
2018-05-06T23:38:52.146Z,12.20
2018-05-06T23:41:19.589Z,12.20
2018-05-06T23:43:47.852Z,12.20
2018-05-06T23:46:15.277Z,12.30
2018-05-06T23:48:42.737Z,12.20
2018-05-06T23:51:10.195Z,12.20
2018-05-06T23:53:38.417Z,12.10
2018-05-06T23:56:05.901Z,12.30
2018-05-06T23:58:33.950Z,12.20
